createdAt,value
2018-07-04T00:00:33.167Z,55.69
2018-07-04T00:01:33.073Z,55.7
2018-07-04T00:02:33.306Z,55.7
2018-07-04T00:03:32.986Z,55.69
2018-07-04T00:04:33.184Z,55.69
2018-07-04T00:05:33.158Z,55.74
2018-07-04T00:06:33.153Z,55.72
2018-07-04T00:07:33.249Z,55.74
2018-07-04T00:08:33.115Z,55.73
2018-07-04T00:09:33.172Z,55.73
2018-07-04T00:10:33.158Z,55.73
2018-07-04T00:11:33.222Z,55.7
2018-07-04T00:12:33.067Z,55.71
2018-07-04T00:13:33.241Z,55.75
2018-07-04T00:14:33.226Z,55.69
2018-07-04T00:15:33.365Z,55.69
2018-07-04T00:16:33.207Z,55.72
2018-07-04T00:17:32.992Z,55.72
2018-07-04T00:18:33.150Z,55.75
2018-07-04T00:19:33.209Z,55.73
2018-07-04T00:20:33.131Z,55.77
2018-07-04T00:21:33.269Z,55.76
2018-07-04T00:22:33.227Z,55.75
2018-07-04T00:23:33.168Z,55.77
2018-07-04T00:24:33.194Z,55.77
2018-07-04T00:25:33.662Z,55.72
2018-07-04T00:26:33.069Z,55.74
2018-07-04T00:27:33.167Z,55.78
2018-07-04T00:28:33.288Z,55.71
2018-07-04T00:29:33.164Z,55.76
2018-07-04T00:30:33.030Z,55.76
2018-07-04T00:31:33.094Z,55.77
2018-07-04T00:32:33.322Z,55.77
2018-07-04T00:33:33.161Z,55.81
2018-07-04T00:34:33.217Z,55.77
2018-07-04T00:35:33.171Z,55.77
2018-07-04T00:36:33.151Z,55.74
2018-07-04T00:37:33.083Z,55.76
2018-07-04T00:38:33.114Z,55.77
2018-07-04T00:39:33.240Z,55.75
2018-07-04T00:40:33.255Z,55.76
2018-07-04T00:41:33.305Z,55.79
2018-07-04T00:42:33.322Z,55.76
2018-07-04T00:43:33.311Z,55.8
2018-07-04T00:44:33.025Z,55.76
2018-07-04T00:45:33.229Z,55.75
2018-07-04T00:46:33.148Z,55.77
2018-07-04T00:47:33.219Z,55.72
2018-07-04T00:48:33.364Z,55.76
2018-07-04T00:49:33.220Z,55.76
2018-07-04T00:50:33.218Z,55.78
2018-07-04T00:51:33.079Z,55.78
2018-07-04T00:52:33.166Z,55.76
2018-07-04T00:53:33.079Z,55.78
2018-07-04T00:54:33.342Z,55.78
2018-07-04T00:55:33.273Z,55.79
2018-07-04T00:56:33.129Z,55.76
2018-07-04T00:57:33.275Z,55.73
2018-07-04T00:58:33.072Z,55.76
2018-07-04T00:59:33.148Z,55.82
2018-07-04T01:00:33.110Z,55.79
2018-07-04T01:01:33.293Z,55.75
2018-07-04T01:02:33.036Z,55.79
2018-07-04T01:03:33.182Z,55.75
2018-07-04T01:04:33.327Z,55.76
2018-07-04T01:05:33.209Z,55.8
2018-07-04T01:06:32.991Z,55.76
2018-07-04T01:07:33.242Z,55.77
2018-07-04T01:08:33.236Z,55.76
2018-07-04T01:09:33.245Z,55.77
2018-07-04T01:10:33.183Z,55.77
2018-07-04T01:11:33.081Z,55.81
2018-07-04T01:12:33.233Z,55.83
2018-07-04T01:13:32.985Z,55.84
2018-07-04T01:14:33.126Z,55.8
2018-07-04T01:15:33.203Z,55.82
2018-07-04T01:16:33.082Z,55.8
2018-07-04T01:17:33.078Z,55.8
2018-07-04T01:18:33.220Z,55.78
2018-07-04T01:19:33.247Z,55.82
2018-07-04T01:20:33.066Z,55.83
2018-07-04T01:21:33.123Z,55.83
2018-07-04T01:22:33.265Z,55.81
2018-07-04T01:23:33.115Z,55.79
2018-07-04T01:24:33.153Z,55.8
2018-07-04T01:25:33.196Z,55.78
2018-07-04T01:26:33.196Z,55.81
2018-07-04T01:27:33.180Z,55.83
2018-07-04T01:28:33.288Z,55.82
2018-07-04T01:29:33.015Z,55.81
2018-07-04T01:30:33.100Z,55.81
2018-07-04T01:31:33.217Z,55.82
2018-07-04T01:32:33.266Z,55.83
2018-07-04T01:33:33.091Z,55.82
2018-07-04T01:34:33.180Z,55.83
2018-07-04T01:35:33.256Z,55.84
2018-07-04T01:36:33.193Z,55.88
2018-07-04T01:37:33.185Z,55.84
2018-07-04T01:38:33.015Z,55.84
2018-07-04T01:39:33.065Z,55.83
2018-07-04T01:40:33.344Z,55.84
2018-07-04T01:41:34.738Z,55.84
2018-07-04T01:42:33.227Z,55.86
2018-07-04T01:43:33.206Z,55.88
2018-07-04T01:44:33.264Z,55.84
2018-07-04T01:45:33.239Z,55.86
2018-07-04T01:46:33.118Z,55.86
2018-07-04T01:48:04.994Z,55.84
2018-07-04T01:48:33.202Z,55.83
2018-07-04T01:49:33.074Z,55.84
2018-07-04T01:50:33.162Z,55.85
2018-07-04T01:51:33.220Z,55.89
2018-07-04T01:52:33.071Z,55.86
2018-07-04T01:53:33.214Z,55.89
2018-07-04T01:54:33.242Z,55.85
2018-07-04T01:55:33.258Z,55.86
2018-07-04T01:56:33.253Z,55.88
2018-07-04T01:57:33.239Z,55.85
2018-07-04T01:58:33.180Z,55.85
2018-07-04T01:59:33.262Z,55.84
2018-07-04T02:00:33.120Z,55.83
2018-07-04T02:01:43.077Z,55.81
2018-07-04T02:02:33.088Z,55.88
2018-07-04T02:03:33.160Z,55.89
2018-07-04T02:04:33.173Z,55.86
2018-07-04T02:05:33.036Z,55.84
2018-07-04T02:06:33.020Z,55.83
2018-07-04T02:07:33.173Z,55.87
2018-07-04T02:08:33.158Z,55.84
2018-07-04T02:09:33.172Z,55.88
2018-07-04T02:10:33.093Z,55.84
2018-07-04T02:11:33.018Z,55.83
2018-07-04T02:12:33.176Z,55.84
2018-07-04T02:13:33.118Z,55.82
2018-07-04T02:14:33.152Z,55.86
2018-07-04T02:15:43.267Z,55.83
2018-07-04T02:16:33.108Z,55.91
2018-07-04T02:17:33.226Z,55.86
2018-07-04T02:18:33.246Z,55.85
2018-07-04T02:19:33.314Z,55.84
2018-07-04T02:20:33.016Z,55.85
2018-07-04T02:21:33.098Z,55.85
2018-07-04T02:22:33.024Z,55.89
2018-07-04T02:23:33.236Z,55.82
2018-07-04T02:24:33.297Z,55.85
2018-07-04T02:25:32.987Z,55.91
2018-07-04T02:26:33.072Z,55.86
2018-07-04T02:27:33.165Z,55.86
2018-07-04T02:28:33.033Z,55.86
2018-07-04T02:29:33.024Z,55.88
2018-07-04T02:30:33.028Z,55.89
2018-07-04T02:31:33.196Z,55.89
2018-07-04T02:32:33.204Z,55.88
2018-07-04T02:33:33.174Z,55.9
2018-07-04T02:34:33.185Z,55.85
2018-07-04T02:35:33.161Z,55.86
2018-07-04T02:36:33.132Z,55.87
2018-07-04T02:37:33.157Z,55.91
2018-07-04T02:38:33.025Z,55.89
2018-07-04T02:39:33.369Z,55.86
2018-07-04T02:40:33.166Z,55.89
2018-07-04T02:41:33.066Z,55.9
2018-07-04T02:42:33.260Z,55.91
2018-07-04T02:43:33.028Z,55.89
2018-07-04T02:44:33.206Z,55.9
2018-07-04T02:45:33.088Z,55.84
2018-07-04T02:46:33.190Z,55.85
2018-07-04T02:47:33.114Z,55.87
2018-07-04T02:48:33.228Z,55.92
2018-07-04T02:49:32.991Z,55.87
2018-07-04T02:50:33.068Z,55.9
2018-07-04T02:51:33.094Z,55.92
2018-07-04T02:52:33.282Z,55.94
2018-07-04T02:53:33.232Z,55.93
2018-07-04T02:54:33.247Z,55.86
2018-07-04T02:55:33.155Z,55.87
2018-07-04T02:56:33.113Z,55.88
2018-07-04T02:57:33.000Z,55.92
2018-07-04T02:58:33.014Z,55.89
2018-07-04T02:59:33.162Z,55.9
2018-07-04T03:00:33.252Z,55.87
2018-07-04T03:01:33.368Z,55.95
2018-07-04T03:02:33.161Z,55.92
2018-07-04T03:03:33.175Z,55.93
2018-07-04T03:04:33.047Z,55.95
2018-07-04T03:05:33.130Z,55.93
2018-07-04T03:06:33.165Z,55.94
2018-07-04T03:07:33.143Z,55.92
2018-07-04T03:08:33.157Z,55.92
2018-07-04T03:09:33.335Z,55.94
2018-07-04T03:10:33.396Z,55.92
2018-07-04T03:11:33.212Z,55.89
2018-07-04T03:12:33.263Z,55.87
2018-07-04T03:13:33.215Z,55.9
2018-07-04T03:14:33.129Z,55.92
2018-07-04T03:15:33.270Z,55.87
2018-07-04T03:16:32.971Z,55.86
2018-07-04T03:17:33.358Z,55.92
2018-07-04T03:18:33.096Z,55.92
2018-07-04T03:19:33.205Z,55.95
2018-07-04T03:20:33.273Z,55.92
2018-07-04T03:21:33.157Z,55.91
2018-07-04T03:22:33.311Z,55.92
2018-07-04T03:23:33.058Z,55.92
2018-07-04T03:24:33.348Z,55.92
2018-07-04T03:25:33.056Z,55.95
2018-07-04T03:26:33.167Z,55.93
2018-07-04T03:27:33.218Z,55.9
2018-07-04T03:28:33.070Z,55.96
2018-07-04T03:29:33.208Z,55.93
2018-07-04T03:30:33.172Z,55.92
2018-07-04T03:31:33.301Z,55.94
2018-07-04T03:32:33.265Z,55.9
2018-07-04T03:33:33.236Z,55.94
2018-07-04T03:34:33.102Z,55.94
2018-07-04T03:35:33.117Z,55.93
2018-07-04T03:36:32.974Z,55.92
2018-07-04T03:37:33.066Z,55.93
2018-07-04T03:38:32.989Z,55.95
2018-07-04T03:39:33.264Z,55.95
2018-07-04T03:40:32.968Z,56
2018-07-04T03:41:33.220Z,55.95
2018-07-04T03:42:33.075Z,55.96
2018-07-04T03:43:33.266Z,55.93
2018-07-04T03:44:33.171Z,55.91
2018-07-04T03:45:33.025Z,55.9
2018-07-04T03:46:33.069Z,55.9
2018-07-04T03:47:33.155Z,55.94
2018-07-04T03:48:32.969Z,55.95
2018-07-04T03:49:33.149Z,55.92
2018-07-04T03:50:33.251Z,55.92
2018-07-04T03:51:33.275Z,55.9
2018-07-04T03:52:33.095Z,55.96
2018-07-04T03:53:33.008Z,55.95
2018-07-04T03:54:33.022Z,55.95
2018-07-04T03:55:32.987Z,55.92
2018-07-04T03:56:33.115Z,55.94
2018-07-04T03:57:33.040Z,55.92
2018-07-04T03:58:33.072Z,55.92
2018-07-04T03:59:33.211Z,55.97
2018-07-04T04:00:33.220Z,55.95
2018-07-04T04:01:33.099Z,55.97
2018-07-04T04:02:33.062Z,55.96
2018-07-04T04:03:33.049Z,55.97
2018-07-04T04:04:33.077Z,55.98
2018-07-04T04:05:32.955Z,55.99
2018-07-04T04:06:33.256Z,55.95
2018-07-04T04:07:33.184Z,55.96
2018-07-04T04:08:33.194Z,55.99
2018-07-04T04:09:33.178Z,56.01
2018-07-04T04:10:32.975Z,55.94
2018-07-04T04:11:33.234Z,55.97
2018-07-04T04:12:32.978Z,55.97
2018-07-04T04:13:33.178Z,55.98
2018-07-04T04:14:33.131Z,55.97
2018-07-04T04:15:33.047Z,55.97
2018-07-04T04:16:33.208Z,55.99
2018-07-04T04:17:33.229Z,55.97
2018-07-04T04:18:33.000Z,55.94
2018-07-04T04:19:33.102Z,55.95
2018-07-04T04:20:33.211Z,55.98
2018-07-04T04:21:33.021Z,55.97
2018-07-04T04:22:33.208Z,55.97
2018-07-04T04:23:33.233Z,55.95
2018-07-04T04:24:33.213Z,55.98
2018-07-04T04:25:33.215Z,55.97
2018-07-04T04:26:33.104Z,55.98
2018-07-04T04:27:33.208Z,56.01
2018-07-04T04:28:33.233Z,56.01
2018-07-04T04:29:33.001Z,55.97
2018-07-04T04:30:33.052Z,56.02
2018-07-04T04:31:33.183Z,56.35
2018-07-04T04:32:33.175Z,56.24
2018-07-04T04:33:33.321Z,56.12
2018-07-04T04:34:33.295Z,56.14
2018-07-04T04:35:33.000Z,56.07
2018-07-04T04:36:33.016Z,56.02
2018-07-04T04:37:33.095Z,56.06
2018-07-04T04:38:33.121Z,56.03
2018-07-04T04:39:33.007Z,56.05
2018-07-04T04:40:33.133Z,56.05
2018-07-04T04:41:33.182Z,56.02
2018-07-04T04:42:33.238Z,56.05
2018-07-04T04:43:33.031Z,56.06
2018-07-04T04:44:33.125Z,56.08
2018-07-04T04:45:33.123Z,56.03
2018-07-04T04:46:33.244Z,56.08
2018-07-04T04:47:33.243Z,56.07
2018-07-04T04:48:33.229Z,56.04
2018-07-04T04:49:33.027Z,56
2018-07-04T04:50:33.009Z,56.02
2018-07-04T04:51:33.055Z,56.05
2018-07-04T04:52:33.018Z,56.06
2018-07-04T04:53:33.224Z,56.04
2018-07-04T04:54:33.225Z,56.06
2018-07-04T04:55:33.312Z,56.01
2018-07-04T04:56:33.162Z,56.05
2018-07-04T04:57:33.176Z,56.07
2018-07-04T04:58:33.094Z,56.01
2018-07-04T04:59:32.930Z,56.02
2018-07-04T05:00:33.044Z,56.05
2018-07-04T05:01:33.106Z,56.02
2018-07-04T05:02:33.331Z,56.05
2018-07-04T05:03:33.198Z,56.03
2018-07-04T05:04:33.009Z,55.99
2018-07-04T05:05:33.003Z,56.04
2018-07-04T05:06:33.097Z,56.01
2018-07-04T05:07:33.078Z,56.04
2018-07-04T05:08:33.034Z,56.03
2018-07-04T05:09:33.099Z,56.02
2018-07-04T05:10:33.151Z,56.02
2018-07-04T05:11:32.977Z,56.01
2018-07-04T05:12:33.240Z,56.05
2018-07-04T05:13:33.121Z,56.01
2018-07-04T05:14:33.085Z,56.01
2018-07-04T05:15:33.565Z,56.01
2018-07-04T05:16:33.062Z,56
2018-07-04T05:17:33.099Z,55.95
2018-07-04T05:18:32.997Z,56
2018-07-04T05:19:33.002Z,56.05
2018-07-04T05:20:33.245Z,56
2018-07-04T05:21:33.230Z,55.98
2018-07-04T05:22:33.020Z,55.98
2018-07-04T05:23:33.105Z,55.96
2018-07-04T05:24:33.062Z,56.06
2018-07-04T05:25:33.280Z,56
2018-07-04T05:26:32.998Z,56.01
2018-07-04T05:27:33.203Z,56.02
2018-07-04T05:28:33.046Z,55.99
2018-07-04T05:29:33.158Z,56.02
2018-07-04T05:30:33.160Z,56.01
2018-07-04T05:31:33.114Z,56.01
2018-07-04T05:32:33.057Z,55.98
2018-07-04T05:33:33.072Z,56.01
2018-07-04T05:34:33.101Z,56.03
2018-07-04T05:35:33.074Z,56.02
2018-07-04T05:36:33.247Z,55.99
2018-07-04T05:37:33.136Z,55.98
2018-07-04T05:38:33.134Z,55.98
2018-07-04T05:39:33.021Z,55.98
2018-07-04T05:40:33.151Z,56
2018-07-04T05:41:33.225Z,56.01
2018-07-04T05:42:33.261Z,55.97
2018-07-04T05:43:33.302Z,56
2018-07-04T05:44:33.164Z,56.01
2018-07-04T05:45:33.216Z,55.96
2018-07-04T05:46:33.100Z,55.99
2018-07-04T05:47:33.524Z,55.98
2018-07-04T05:48:33.196Z,56.01
2018-07-04T05:49:33.056Z,55.98
2018-07-04T05:50:33.249Z,55.97
2018-07-04T05:51:33.062Z,55.99
2018-07-04T05:52:33.179Z,55.98
2018-07-04T05:53:32.973Z,56.01
2018-07-04T05:54:33.210Z,55.99
2018-07-04T05:55:32.994Z,55.99
2018-07-04T05:56:33.139Z,55.98
2018-07-04T05:57:33.155Z,55.99
2018-07-04T05:58:32.970Z,55.95
2018-07-04T05:59:33.101Z,55.99
2018-07-04T06:00:32.973Z,55.99
2018-07-04T06:01:33.075Z,55.96
2018-07-04T06:03:03.971Z,55.96
2018-07-04T06:03:33.123Z,55.95
2018-07-04T06:04:33.145Z,55.93
2018-07-04T06:05:33.012Z,55.94
2018-07-04T06:06:33.137Z,55.97
2018-07-04T06:07:32.953Z,55.99
2018-07-04T06:08:33.164Z,55.99
2018-07-04T06:09:33.076Z,55.97
2018-07-04T06:10:33.176Z,55.95
2018-07-04T06:11:33.115Z,55.96
2018-07-04T06:12:33.107Z,55.97
2018-07-04T06:13:33.063Z,55.98
2018-07-04T06:14:33.086Z,55.99
2018-07-04T06:15:33.050Z,55.96
2018-07-04T06:16:32.977Z,55.95
2018-07-04T06:17:33.473Z,55.98
2018-07-04T06:18:33.053Z,55.96
2018-07-04T06:19:33.167Z,55.95
2018-07-04T06:20:32.949Z,55.95
2018-07-04T06:21:33.138Z,55.96
2018-07-04T06:22:33.121Z,55.96
2018-07-04T06:23:32.967Z,55.92
2018-07-04T06:24:33.161Z,56
2018-07-04T06:25:32.982Z,55.95
2018-07-04T06:26:33.185Z,55.94
2018-07-04T06:27:33.209Z,55.96
2018-07-04T06:28:33.140Z,55.94
2018-07-04T06:29:32.977Z,55.95
2018-07-04T06:30:33.111Z,55.96
2018-07-04T06:31:33.118Z,55.99
2018-07-04T06:32:33.014Z,55.95
2018-07-04T06:33:33.233Z,55.95
2018-07-04T06:34:32.974Z,55.97
2018-07-04T06:35:33.076Z,55.96
2018-07-04T06:36:33.217Z,55.92
2018-07-04T06:37:33.135Z,55.94
2018-07-04T06:38:33.153Z,55.95
2018-07-04T06:39:33.097Z,55.95
2018-07-04T06:40:32.976Z,55.9
2018-07-04T06:41:33.024Z,55.95
2018-07-04T06:42:33.041Z,55.94
2018-07-04T06:43:33.003Z,55.89
2018-07-04T06:44:32.974Z,56.06
2018-07-04T06:45:33.126Z,56.13
2018-07-04T06:46:33.166Z,56.16
2018-07-04T06:47:33.285Z,56.21
2018-07-04T06:48:33.149Z,56.36
2018-07-04T06:49:33.143Z,56.31
2018-07-04T06:50:33.083Z,56.31
2018-07-04T06:51:33.202Z,56.22
2018-07-04T06:52:32.979Z,56.22
2018-07-04T06:53:33.127Z,56.19
2018-07-04T06:54:34.252Z,56.19
2018-07-04T06:55:33.074Z,56.19
2018-07-04T06:56:33.133Z,56.17
2018-07-04T06:57:33.075Z,56.13
2018-07-04T06:58:33.190Z,56.13
2018-07-04T06:59:33.477Z,56.12
2018-07-04T07:00:33.181Z,56.17
2018-07-04T07:01:32.974Z,56.18
2018-07-04T07:02:33.035Z,56.09
2018-07-04T07:03:33.138Z,56.11
2018-07-04T07:04:33.174Z,56.03
2018-07-04T07:05:33.021Z,56.03
2018-07-04T07:06:33.180Z,56.07
2018-07-04T07:07:33.217Z,56.07
2018-07-04T07:08:33.637Z,56.08
2018-07-04T07:09:33.054Z,56.07
2018-07-04T07:10:32.970Z,56.06
2018-07-04T07:11:33.021Z,56.03
2018-07-04T07:12:33.229Z,56.02
2018-07-04T07:13:33.105Z,56.09
2018-07-04T07:14:34.195Z,56.09
2018-07-04T07:15:33.040Z,56.03
2018-07-04T07:16:33.007Z,56.03
2018-07-04T07:17:33.397Z,56.03
2018-07-04T07:18:33.057Z,56.02
2018-07-04T07:19:33.023Z,56.02
2018-07-04T07:20:33.138Z,55.98
2018-07-04T07:21:33.016Z,56.04
2018-07-04T07:22:33.086Z,56.03
2018-07-04T07:23:33.127Z,56.15
2018-07-04T07:24:33.212Z,56.23
2018-07-04T07:25:33.013Z,56.39
2018-07-04T07:26:33.011Z,56.31
2018-07-04T07:27:33.553Z,56.3
2018-07-04T07:28:32.944Z,56.31
2018-07-04T07:29:33.058Z,56.38
2018-07-04T07:30:33.043Z,56.34
2018-07-04T07:31:33.041Z,56.35
2018-07-04T07:32:33.014Z,56.32
2018-07-04T07:33:33.126Z,56.3
2018-07-04T07:34:33.211Z,56.4
2018-07-04T07:35:33.146Z,56.38
2018-07-04T07:36:33.161Z,56.39
2018-07-04T07:37:32.940Z,56.39
2018-07-04T07:38:33.195Z,56.35
2018-07-04T07:39:33.140Z,56.35
2018-07-04T07:40:33.079Z,56.34
2018-07-04T07:41:32.964Z,56.39
2018-07-04T07:42:33.125Z,56.36
2018-07-04T07:43:33.113Z,56.39
2018-07-04T07:44:33.018Z,56.29
2018-07-04T07:45:33.292Z,56.37
2018-07-04T07:46:32.993Z,56.34
2018-07-04T07:47:33.082Z,56.34
2018-07-04T07:48:33.094Z,56.36
2018-07-04T07:49:33.069Z,56.29
2018-07-04T07:50:32.991Z,56.32
2018-07-04T07:51:33.167Z,56.3
2018-07-04T07:52:33.211Z,56.24
2018-07-04T07:53:33.231Z,56.22
2018-07-04T07:54:33.014Z,56.23
2018-07-04T07:55:33.024Z,56.2
2018-07-04T07:56:33.007Z,56.22
2018-07-04T07:57:33.227Z,56.22
2018-07-04T07:58:32.953Z,56.22
2018-07-04T07:59:33.262Z,56.2
2018-07-04T08:00:33.074Z,56.22
2018-07-04T08:01:33.182Z,56.19
2018-07-04T08:02:33.026Z,56.15
2018-07-04T08:03:33.115Z,56.14
2018-07-04T08:04:32.962Z,56.15
2018-07-04T08:05:33.184Z,56.14
2018-07-04T08:06:33.222Z,56.13
2018-07-04T08:07:33.079Z,56.14
2018-07-04T08:08:33.091Z,56.15
2018-07-04T08:09:33.149Z,56.18
2018-07-04T08:10:33.288Z,56.15
2018-07-04T08:11:33.170Z,56.17
2018-07-04T08:12:33.172Z,56.13
2018-07-04T08:13:33.207Z,56.13
2018-07-04T08:14:33.104Z,56.11
2018-07-04T08:15:33.055Z,56.06
2018-07-04T08:16:33.108Z,56.16
2018-07-04T08:17:33.189Z,56.11
2018-07-04T08:18:33.171Z,56.09
2018-07-04T08:19:32.992Z,56.14
2018-07-04T08:20:33.074Z,56.16
2018-07-04T08:21:33.064Z,56.14
2018-07-04T08:22:32.930Z,56.16
2018-07-04T08:23:33.166Z,56.16
2018-07-04T08:24:33.157Z,56.15
2018-07-04T08:25:33.216Z,56.15
2018-07-04T08:26:32.983Z,56.15
2018-07-04T08:27:33.200Z,56.15
2018-07-04T08:28:33.090Z,56.1
2018-07-04T08:29:33.181Z,56.12
2018-07-04T08:30:33.045Z,56.18
2018-07-04T08:31:32.972Z,56.17
2018-07-04T08:32:33.127Z,56.15
2018-07-04T08:33:33.627Z,56.13
2018-07-04T08:34:33.333Z,56.15
2018-07-04T08:35:32.986Z,56.14
2018-07-04T08:36:33.019Z,56.12
2018-07-04T08:37:33.130Z,56.13
2018-07-04T08:38:33.062Z,56.13
2018-07-04T08:39:33.067Z,56.12
2018-07-04T08:40:32.946Z,56.15
2018-07-04T08:41:33.129Z,56.14
2018-07-04T08:42:33.053Z,56.12
2018-07-04T08:43:33.038Z,56.13
2018-07-04T08:44:33.045Z,56.15
2018-07-04T08:45:33.161Z,56.15
2018-07-04T08:46:32.989Z,56.12
2018-07-04T08:47:32.997Z,56.1
2018-07-04T08:48:33.209Z,56.12
2018-07-04T08:49:33.101Z,56.1
2018-07-04T08:50:33.588Z,56.14
2018-07-04T08:51:33.113Z,56.14
2018-07-04T08:52:33.367Z,56.11
2018-07-04T08:53:33.170Z,56.15
2018-07-04T08:54:32.997Z,56.27
2018-07-04T08:55:33.259Z,56.22
2018-07-04T08:56:32.990Z,56.45
2018-07-04T08:57:33.165Z,56.48
2018-07-04T08:58:43.026Z,56.57
2018-07-04T08:59:33.198Z,56.45
2018-07-04T09:00:33.283Z,56.44
2018-07-04T09:01:32.941Z,56.45
2018-07-04T09:02:33.129Z,56.42
2018-07-04T09:03:33.080Z,56.33
2018-07-04T09:04:33.065Z,56.34
2018-07-04T09:05:33.348Z,56.33
2018-07-04T09:06:32.999Z,56.35
2018-07-04T09:07:32.914Z,56.33
2018-07-04T09:08:32.964Z,56.44
2018-07-04T09:09:32.986Z,56.36
2018-07-04T09:10:32.916Z,56.38
2018-07-04T09:11:33.735Z,56.45
2018-07-04T09:12:33.223Z,56.44
2018-07-04T09:13:33.126Z,56.46
2018-07-04T09:14:33.078Z,56.46
2018-07-04T09:15:32.978Z,56.46
2018-07-04T09:16:33.095Z,56.44
2018-07-04T09:17:33.185Z,56.39
2018-07-04T09:18:33.021Z,56.37
2018-07-04T09:19:33.017Z,56.39
2018-07-04T09:20:33.044Z,56.33
2018-07-04T09:21:33.015Z,56.41
2018-07-04T09:22:33.067Z,56.34
2018-07-04T09:23:33.091Z,56.31
2018-07-04T09:24:33.679Z,56.36
2018-07-04T09:25:33.178Z,56.28
2018-07-04T09:26:32.925Z,56.28
2018-07-04T09:27:32.860Z,56.28
2018-07-04T09:28:33.062Z,56.25
2018-07-04T09:29:33.025Z,56.25
2018-07-04T09:30:32.970Z,56.24
2018-07-04T09:31:33.037Z,56.21
2018-07-04T09:32:33.578Z,56.19
2018-07-04T09:33:33.030Z,56.21
2018-07-04T09:34:33.193Z,56.22
2018-07-04T09:35:33.046Z,56.18
2018-07-04T09:36:33.081Z,56.21
2018-07-04T09:37:33.069Z,56.17
2018-07-04T09:38:32.971Z,56.14
2018-07-04T09:39:32.922Z,56.14
2018-07-04T09:40:33.030Z,56.15
2018-07-04T09:41:32.955Z,56.15
2018-07-04T09:42:33.066Z,56.15
2018-07-04T09:43:32.930Z,56.17
2018-07-04T09:44:32.923Z,56.16
2018-07-04T09:45:32.998Z,56.2
2018-07-04T09:46:32.903Z,56.17
2018-07-04T09:47:32.978Z,56.16
2018-07-04T09:48:32.989Z,56.18
2018-07-04T09:49:33.471Z,56.17
2018-07-04T09:50:33.014Z,56.2
2018-07-04T09:51:33.254Z,56.18
2018-07-04T09:52:33.046Z,56.19
2018-07-04T09:53:33.215Z,56.18
2018-07-04T09:54:32.937Z,56.18
2018-07-04T09:55:33.102Z,56.18
2018-07-04T09:56:32.938Z,56.18
2018-07-04T09:57:33.438Z,56.2
2018-07-04T09:58:33.113Z,56.19
2018-07-04T09:59:32.989Z,56.19
2018-07-04T10:00:32.942Z,56.22
2018-07-04T10:01:33.153Z,56.22
2018-07-04T10:02:33.284Z,56.21
2018-07-04T10:03:33.113Z,56.19
2018-07-04T10:04:33.083Z,56.22
2018-07-04T10:05:33.059Z,56.2
2018-07-04T10:06:32.955Z,56.22
2018-07-04T10:07:32.901Z,56.2
2018-07-04T10:08:33.025Z,56.24
2018-07-04T10:09:33.145Z,56.24
2018-07-04T10:10:33.178Z,56.23
2018-07-04T10:11:32.987Z,56.22
2018-07-04T10:12:33.489Z,56.24
2018-07-04T10:13:33.090Z,56.22
2018-07-04T10:14:33.317Z,56.25
2018-07-04T10:15:33.178Z,56.25
2018-07-04T10:16:33.095Z,56.27
2018-07-04T10:17:32.980Z,56.26
2018-07-04T10:18:33.062Z,56.25
2018-07-04T10:19:32.952Z,56.23
2018-07-04T10:20:32.973Z,56.29
2018-07-04T10:21:33.161Z,56.27
2018-07-04T10:22:32.937Z,56.24
2018-07-04T10:23:33.074Z,56.26
2018-07-04T10:24:33.530Z,56.24
2018-07-04T10:25:33.121Z,56.24
2018-07-04T10:26:33.223Z,56.24
2018-07-04T10:27:33.025Z,56.22
2018-07-04T10:28:33.153Z,56.22
2018-07-04T10:29:32.909Z,56.22
2018-07-04T10:30:32.995Z,56.23
2018-07-04T10:31:33.155Z,56.23
2018-07-04T10:32:32.958Z,56.25
2018-07-04T10:33:33.070Z,56.25
2018-07-04T10:34:32.973Z,56.3
2018-07-04T10:35:32.938Z,56.24
2018-07-04T10:36:33.186Z,56.27
2018-07-04T10:37:33.202Z,56.28
2018-07-04T10:38:33.168Z,56.26
2018-07-04T10:39:33.155Z,56.29
2018-07-04T10:40:33.015Z,56.28
2018-07-04T10:41:32.867Z,56.26
2018-07-04T10:42:33.135Z,56.27
2018-07-04T10:43:32.930Z,56.29
2018-07-04T10:44:33.228Z,56.25
2018-07-04T10:45:32.990Z,56.29
2018-07-04T10:46:33.239Z,56.23
2018-07-04T10:47:33.007Z,56.26
2018-07-04T10:48:33.271Z,56.26
2018-07-04T10:49:33.022Z,56.25
2018-07-04T10:50:32.983Z,56.25
2018-07-04T10:51:33.042Z,56.25
2018-07-04T10:52:33.286Z,56.24
2018-07-04T10:53:33.108Z,56.23
2018-07-04T10:54:33.057Z,56.25
2018-07-04T10:55:33.101Z,56.24
2018-07-04T10:56:33.011Z,56.27
2018-07-04T10:57:32.957Z,56.22
2018-07-04T10:58:33.728Z,56.22
2018-07-04T10:59:32.882Z,56.26
2018-07-04T11:00:32.967Z,56.24
2018-07-04T11:01:33.039Z,56.22
2018-07-04T11:02:33.046Z,56.21
2018-07-04T11:03:33.068Z,56.19
2018-07-04T11:04:33.710Z,56.22
2018-07-04T11:05:33.006Z,56.24
2018-07-04T11:06:33.001Z,56.24
2018-07-04T11:07:33.039Z,56.22
2018-07-04T11:08:32.920Z,56.21
2018-07-04T11:09:33.101Z,56.2
2018-07-04T11:10:32.989Z,56.26
2018-07-04T11:11:32.942Z,56.21
2018-07-04T11:12:33.056Z,56.19
2018-07-04T11:13:33.019Z,56.24
2018-07-04T11:14:32.877Z,56.24
2018-07-04T11:15:32.949Z,56.24
2018-07-04T11:16:33.189Z,56.22
2018-07-04T11:17:32.901Z,56.21
2018-07-04T11:18:33.200Z,56.24
2018-07-04T11:19:33.031Z,56.24
2018-07-04T11:20:33.236Z,56.2
2018-07-04T11:21:32.885Z,56.27
2018-07-04T11:22:33.524Z,56.24
2018-07-04T11:23:33.019Z,56.27
2018-07-04T11:24:33.202Z,56.24
2018-07-04T11:25:32.939Z,56.24
2018-07-04T11:26:33.033Z,56.25
2018-07-04T11:27:33.039Z,56.27
2018-07-04T11:28:33.845Z,56.24
2018-07-04T11:29:33.034Z,56.24
2018-07-04T11:30:32.973Z,56.25
2018-07-04T11:31:32.954Z,56.26
2018-07-04T11:32:33.081Z,56.26
2018-07-04T11:33:32.959Z,56.27
2018-07-04T11:34:33.115Z,56.28
2018-07-04T11:35:33.059Z,56.32
2018-07-04T11:36:32.941Z,56.3
2018-07-04T11:37:32.917Z,56.27
2018-07-04T11:38:32.927Z,56.24
2018-07-04T11:39:33.134Z,56.26
2018-07-04T11:40:33.060Z,56.26
2018-07-04T11:41:33.146Z,56.24
2018-07-04T11:42:33.186Z,56.29
2018-07-04T11:43:32.924Z,56.25
2018-07-04T11:44:33.122Z,56.24
2018-07-04T11:45:33.113Z,56.27
2018-07-04T11:46:32.992Z,56.26
2018-07-04T11:47:33.059Z,56.25
2018-07-04T11:48:32.856Z,56.25
2018-07-04T11:49:33.443Z,56.28
2018-07-04T11:50:33.062Z,56.24
2018-07-04T11:51:33.155Z,56.27
2018-07-04T11:52:33.238Z,56.25
2018-07-04T11:53:32.882Z,56.27
2018-07-04T11:54:33.008Z,56.26
2018-07-04T11:55:32.943Z,56.29
2018-07-04T11:56:33.475Z,56.28
2018-07-04T11:57:33.092Z,56.29
2018-07-04T11:58:33.016Z,56.25
2018-07-04T11:59:33.150Z,56.26
2018-07-04T12:00:32.968Z,56.27
2018-07-04T12:01:33.000Z,56.27
2018-07-04T12:02:33.107Z,56.29
2018-07-04T12:03:32.982Z,56.32
2018-07-04T12:04:32.937Z,56.29
2018-07-04T12:05:33.557Z,56.28
2018-07-04T12:06:33.173Z,56.25
2018-07-04T12:07:33.024Z,56.3
2018-07-04T12:08:33.075Z,56.26
2018-07-04T12:09:32.989Z,56.31
2018-07-04T12:10:33.143Z,56.3
2018-07-04T12:11:33.090Z,56.27
2018-07-04T12:12:33.128Z,56.29
2018-07-04T12:13:32.854Z,56.29
2018-07-04T12:14:33.098Z,56.29
2018-07-04T12:15:33.030Z,56.33
2018-07-04T12:16:33.122Z,56.33
2018-07-04T12:17:33.025Z,56.3
2018-07-04T12:18:33.016Z,56.33
2018-07-04T12:19:32.940Z,56.35
2018-07-04T12:20:32.969Z,56.33
2018-07-04T12:21:32.966Z,56.35
2018-07-04T12:22:32.942Z,56.32
2018-07-04T12:23:32.873Z,56.32
2018-07-04T12:24:33.023Z,56.34
2018-07-04T12:25:32.987Z,56.32
2018-07-04T12:26:33.464Z,56.37
2018-07-04T12:27:32.949Z,56.34
2018-07-04T12:28:33.064Z,56.3
2018-07-04T12:29:33.161Z,56.34
2018-07-04T12:30:33.161Z,56.31
2018-07-04T12:31:32.800Z,56.34
2018-07-04T12:32:33.090Z,56.33
2018-07-04T12:33:33.125Z,56.35
2018-07-04T12:34:33.163Z,56.34
2018-07-04T12:35:32.908Z,56.32
2018-07-04T12:36:32.984Z,56.31
2018-07-04T12:37:34.135Z,56.32
2018-07-04T12:38:33.217Z,56.35
2018-07-04T12:39:33.037Z,56.34
2018-07-04T12:40:33.280Z,56.33
2018-07-04T12:41:32.973Z,56.36
2018-07-04T12:42:33.157Z,56.33
2018-07-04T12:43:34.528Z,56.31
2018-07-04T12:44:33.273Z,56.37
2018-07-04T12:45:40.035Z,56.36
2018-07-04T12:46:33.074Z,56.35
2018-07-04T12:47:33.031Z,56.34
2018-07-04T12:48:33.043Z,56.36
2018-07-04T12:49:32.901Z,56.34
2018-07-04T12:50:33.057Z,56.36
2018-07-04T12:51:33.181Z,56.35
2018-07-04T12:52:32.880Z,56.35
2018-07-04T12:53:33.035Z,56.36
2018-07-04T12:54:33.629Z,56.36